sensor_id;sensor_type;location;lat;lon;timestamp;pressure;altitude;pressure_sealevel;temperature;humidity
58367;BME280;57745;42.524;12.052;2023-09-30T00:01:19;96939.81;;;25.44;32.97
58367;BME280;57745;42.524;12.052;2023-09-30T00:17:11;96941.78;;;25.49;32.53
58367;BME280;57745;42.524;12.052;2023-09-30T00:33:03;96944.25;;;25.58;32.49
58367;BME280;57745;42.524;12.052;2023-09-30T01:03:14;96930.53;;;25.30;32.67
58367;BME280;57745;42.524;12.052;2023-09-30T01:19:06;96906.06;;;25.28;32.82
58367;BME280;57745;42.524;12.052;2023-09-30T01:34:49;96892.63;;;25.38;32.77
58367;BME280;57745;42.524;12.052;2023-09-30T01:47:35;96891.41;;;25.33;32.74
58367;BME280;57745;42.524;12.052;2023-09-30T02:03:27;96913.66;;;25.22;33.24
58367;BME280;57745;42.524;12.052;2023-09-30T02:19:20;96916.66;;;25.30;33.67
58367;BME280;57745;42.524;12.052;2023-09-30T02:48:40;96909.16;;;25.19;33.69
58367;BME280;57745;42.524;12.052;2023-09-30T02:51:10;96905.72;;;24.91;34.20
58367;BME280;57745;42.524;12.052;2023-09-30T03:04:07;96903.66;;;25.08;34.07
58367;BME280;57745;42.524;12.052;2023-09-30T03:19:59;96888.50;;;25.09;34.08
58367;BME280;57745;42.524;12.052;2023-09-30T03:22:26;96884.97;;;25.09;34.23
58367;BME280;57745;42.524;12.052;2023-09-30T03:34:57;96877.13;;;25.13;34.27
58367;BME280;57745;42.524;12.052;2023-09-30T03:50:53;96890.78;;;25.05;34.59
58367;BME280;57745;42.524;12.052;2023-09-30T04:20:01;96885.53;;;24.96;34.63
58367;BME280;57745;42.524;12.052;2023-09-30T04:35:54;96884.03;;;24.89;34.01
58367;BME280;57745;42.524;12.052;2023-09-30T04:51:46;96881.81;;;24.77;33.00
58367;BME280;57745;42.524;12.052;2023-09-30T05:04:45;96898.19;;;24.75;32.44
58367;BME280;57745;42.524;12.052;2023-09-30T05:20:37;96910.28;;;24.83;32.26
58367;BME280;57745;42.524;12.052;2023-09-30T05:36:43;96912.59;;;24.67;33.01
58367;BME280;57745;42.524;12.052;2023-09-30T05:39:08;96914.63;;;24.61;33.25
58367;BME280;57745;42.524;12.052;2023-09-30T05:41:36;96920.38;;;24.75;32.97
58367;BME280;57745;42.524;12.052;2023-09-30T05:50:45;96923.16;;;24.75;32.82
58367;BME280;57745;42.524;12.052;2023-09-30T06:06:38;96925.41;;;24.82;33.42
58367;BME280;57745;42.524;12.052;2023-09-30T06:22:30;96943.28;;;24.97;33.22
58367;BME280;57745;42.524;12.052;2023-09-30T06:38:21;96953.13;;;24.98;33.35
58367;BME280;57745;42.524;12.052;2023-09-30T06:51:06;96951.59;;;24.92;33.71
58367;BME280;57745;42.524;12.052;2023-09-30T07:07:48;96971.78;;;24.87;34.15
58367;BME280;57745;42.524;12.052;2023-09-30T07:23:47;96987.16;;;25.04;34.52
58367;BME280;57745;42.524;12.052;2023-09-30T07:36:37;96997.22;;;25.19;34.18
58367;BME280;57745;42.524;12.052;2023-09-30T07:52:30;97013.38;;;25.15;33.87
58367;BME280;57745;42.524;12.052;2023-09-30T08:08:23;97019.31;;;25.41;33.54
58367;BME280;57745;42.524;12.052;2023-09-30T08:38:37;97040.38;;;25.77;33.54
58367;BME280;57745;42.524;12.052;2023-09-30T09:07:57;97016.13;;;25.84;34.66
58367;BME280;57745;42.524;12.052;2023-09-30T09:23:50;97017.47;;;26.07;34.91
58367;BME280;57745;42.524;12.052;2023-09-30T09:39:53;97011.03;;;26.29;34.86
58367;BME280;57745;42.524;12.052;2023-09-30T10:09:00;97032.50;;;26.23;35.09
58367;BME280;57745;42.524;12.052;2023-09-30T10:24:58;97024.81;;;26.40;34.54
58367;BME280;57745;42.524;12.052;2023-09-30T10:40:52;97026.06;;;26.44;34.50
58367;BME280;57745;42.524;12.052;2023-09-30T10:43:30;97029.38;;;26.43;34.79
58367;BME280;57745;42.524;12.052;2023-09-30T10:46:02;97023.81;;;26.43;34.15
58367;BME280;57745;42.524;12.052;2023-09-30T11:57:14;96962.44;;;26.60;32.16
58367;BME280;57745;42.524;12.052;2023-09-30T12:13:34;96963.66;;;26.64;30.84
58367;BME280;57745;42.524;12.052;2023-09-30T12:29:26;96959.13;;;26.61;29.81
58367;BME280;57745;42.524;12.052;2023-09-30T12:58:32;96943.16;;;26.67;31.47
58367;BME280;57745;42.524;12.052;2023-09-30T13:14:26;96948.47;;;26.65;30.70
58367;BME280;57745;42.524;12.052;2023-09-30T13:44:37;96922.63;;;26.70;30.64
58367;BME280;57745;42.524;12.052;2023-09-30T14:00:29;96899.78;;;26.77;31.27
58367;BME280;57745;42.524;12.052;2023-09-30T14:29:34;96895.13;;;26.86;30.41
58367;BME280;57745;42.524;12.052;2023-09-30T14:45:26;96882.38;;;26.96;28.86
58367;BME280;57745;42.524;12.052;2023-09-30T15:01:18;96903.69;;;26.93;29.62
58367;BME280;57745;42.524;12.052;2023-09-30T15:14:27;96903.91;;;26.95;29.73
58367;BME280;57745;42.524;12.052;2023-09-30T15:30:40;96912.41;;;27.03;29.84
58367;BME280;57745;42.524;12.052;2023-09-30T15:46:32;96915.06;;;26.90;29.27
58367;BME280;57745;42.524;12.052;2023-09-30T15:48:58;96905.84;;;27.00;29.04
58367;BME280;57745;42.524;12.052;2023-09-30T16:01:29;96894.28;;;27.15;29.69
58367;BME280;57745;42.524;12.052;2023-09-30T16:31:21;96918.88;;;27.11;33.74
58367;BME280;57745;42.524;12.052;2023-09-30T16:47:13;96927.75;;;27.09;35.60
58367;BME280;57745;42.524;12.052;2023-09-30T17:03:05;96924.88;;;26.96;36.27
58367;BME280;57745;42.524;12.052;2023-09-30T17:15:51;96933.56;;;26.87;36.46
58367;BME280;57745;42.524;12.052;2023-09-30T17:31:44;96939.38;;;26.65;36.68
58367;BME280;57745;42.524;12.052;2023-09-30T17:47:36;96952.53;;;26.64;37.46
58367;BME280;57745;42.524;12.052;2023-09-30T18:18:15;96959.34;;;26.39;38.83
58367;BME280;57745;42.524;12.052;2023-09-30T18:48:55;96971.28;;;26.34;40.03
58367;BME280;57745;42.524;12.052;2023-09-30T18:51:21;96972.50;;;26.38;40.11
58367;BME280;57745;42.524;12.052;2023-09-30T19:03:52;96975.13;;;26.25;40.77
58367;BME280;57745;42.524;12.052;2023-09-30T19:33:05;96993.38;;;26.21;40.92
58367;BME280;57745;42.524;12.052;2023-09-30T19:48:57;97002.75;;;26.18;40.30
58367;BME280;57745;42.524;12.052;2023-09-30T20:04:50;97004.94;;;26.25;38.81
58367;BME280;57745;42.524;12.052;2023-09-30T20:17:54;96996.69;;;26.13;38.67
58367;BME280;57745;42.524;12.052;2023-09-30T20:33:47;97005.19;;;26.27;38.33
58367;BME280;57745;42.524;12.052;2023-09-30T20:49:40;97007.47;;;25.87;38.89
58367;BME280;57745;42.524;12.052;2023-09-30T20:52:05;97006.78;;;25.81;39.05
58367;BME280;57745;42.524;12.052;2023-09-30T20:54:32;97007.53;;;25.82;39.12
58367;BME280;57745;42.524;12.052;2023-09-30T21:03:41;97004.63;;;25.98;39.06
58367;BME280;57745;42.524;12.052;2023-09-30T21:19:33;97015.75;;;25.98;35.83
58367;BME280;57745;42.524;12.052;2023-09-30T21:35:26;97024.06;;;26.04;33.04
58367;BME280;57745;42.524;12.052;2023-09-30T21:51:19;97030.13;;;26.02;35.45
58367;BME280;57745;42.524;12.052;2023-09-30T22:07:11;97024.16;;;25.87;39.51
58367;BME280;57745;42.524;12.052;2023-09-30T22:36:32;97030.22;;;25.91;34.27
58367;BME280;57745;42.524;12.052;2023-09-30T22:52:26;97034.75;;;25.89;32.85
58367;BME280;57745;42.524;12.052;2023-09-30T23:08:19;97031.53;;;25.79;34.44
58367;BME280;57745;42.524;12.052;2023-09-30T23:21:24;97034.38;;;25.68;35.18
58367;BME280;57745;42.524;12.052;2023-09-30T23:37:17;97041.41;;;25.74;35.49
58367;BME280;57745;42.524;12.052;2023-09-30T23:53:10;97038.06;;;25.87;33.30
